Mazatenango, Guatemala
Current Conditions -  °F | °C
As of 10:00 PM on Sunday 19 Oct 2014 (Local Time) from MGSJ Reporting Station
Broken Clouds Broken Clouds  
Wind Chill: 77°   Ceiling: 8000
Heat Index: 78°   Visibility: 6mi
Dew Point: 75°   Wind: 0mph
Humidity: 94%   Direction: NA
Pressure: 29.88"   Gusts: NA
Location:  14.31°N, 91.3°W
Report Text: MGSJ 200400Z 00000KT CAVOK 25/24 Q1012 A2988 BKN080
Loading
Personal Weather Stations






























Interactive Weather Map
Tropical Storm Tracking
New forecast layout! Learn more

10-Day Weather Forecast

Advertisements
Track Severe Weather on mobile